Time;durP1;ratioP1;P1;durP2;ratioP2;P2;SDS_P1;SDS_P2;PMS_P1;PMS_P2;Temp;Humidity;BMP_temperature;BMP_pressure;BME280_temperature;BME280_humidity;BME280_pressure;Samples;Min_cycle;Max_cycle;Signal;HPM_P1;HPM_P2
2024/04/14 00:00:53;;;;;;;3.13;2.93;;;;;;;;;;5443043;26;20587;-74
2024/04/14 00:03:19;;;;;;;4.50;4.10;;;;;;;;;;5437971;26;20466;-74
2024/04/14 00:05:48;;;;;;;3.47;3.20;;;;;;;;;;5449002;26;20905;-75
2024/04/14 00:08:14;;;;;;;3.50;3.30;;;;;;;;;;5420618;26;20474;-74
2024/04/14 00:10:46;;;;;;;3.90;3.60;;;;;;;;;;5428125;26;20571;-74
2024/04/14 00:13:12;;;;;;;3.70;3.27;;;;;;;;;;5440769;26;20598;-74
2024/04/14 00:15:41;;;;;;;4.50;3.50;;;;;;;;;;5446558;26;20536;-74
2024/04/14 00:18:07;;;;;;;3.33;2.97;;;;;;;;;;5416424;26;20595;-74
2024/04/14 00:20:36;;;;;;;3.57;3.27;;;;;;;;;;5438973;26;20478;-74
2024/04/14 00:23:02;;;;;;;3.97;3.67;;;;;;;;;;5448169;26;20526;-74
2024/04/14 00:25:31;;;;;;;3.70;3.50;;;;;;;;;;5433601;26;20485;-74
2024/04/14 00:28:00;;;;;;;5.03;4.00;;;;;;;;;;5448685;26;20541;-74
2024/04/14 00:30:29;;;;;;;2.90;2.70;;;;;;;;;;5426604;26;20542;-74
2024/04/14 00:32:55;;;;;;;3.10;2.90;;;;;;;;;;5432330;26;20540;-74
2024/04/14 00:35:25;;;;;;;3.87;3.60;;;;;;;;;;5435842;26;20472;-74
2024/04/14 00:37:51;;;;;;;3.70;3.40;;;;;;;;;;5447998;26;20489;-74
2024/04/14 00:40:20;;;;;;;3.30;3.10;;;;;;;;;;5431726;26;20533;-74
2024/04/14 00:42:46;;;;;;;3.50;3.20;;;;;;;;;;5432098;26;20530;-74
2024/04/14 00:45:18;;;;;;;3.67;3.47;;;;;;;;;;5416104;26;20576;-74
2024/04/14 00:47:44;;;;;;;3.43;3.10;;;;;;;;;;5446656;26;20624;-74
2024/04/14 00:50:13;;;;;;;4.37;3.77;;;;;;;;;;5442798;26;20553;-75
2024/04/14 00:52:40;;;;;;;4.23;3.83;;;;;;;;;;5440060;26;20529;-74
2024/04/14 00:55:09;;;;;;;3.53;3.17;;;;;;;;;;5419081;26;20813;-74
2024/04/14 00:57:35;;;;;;;3.13;2.93;;;;;;;;;;5428188;26;20485;-73
2024/04/14 01:00:05;;;;;;;4.30;4.00;;;;;;;;;;5415871;26;20522;-74
2024/04/14 01:02:35;;;;;;;2.80;2.70;;;;;;;;;;5424558;26;20472;-74
2024/04/14 01:05:04;;;;;;;4.10;3.73;;;;;;;;;;5417877;26;20468;-74
2024/04/14 01:07:30;;;;;;;5.03;3.73;;;;;;;;;;5433937;26;21043;-74
2024/04/14 01:10:00;;;;;;;3.93;3.63;;;;;;;;;;5431606;26;21003;-74
2024/04/14 01:12:26;;;;;;;3.57;3.37;;;;;;;;;;5446159;26;20468;-74
2024/04/14 01:14:55;;;;;;;4.97;3.57;;;;;;;;;;5432477;26;20476;-74
2024/04/14 01:17:22;;;;;;;3.10;2.90;;;;;;;;;;5426847;26;21030;-74
2024/04/14 01:19:53;;;;;;;5.53;3.27;;;;;;;;;;5420540;26;20493;-74
2024/04/14 01:22:19;;;;;;;3.77;3.57;;;;;;;;;;5430359;26;20473;-74
2024/04/14 01:24:48;;;;;;;3.10;2.80;;;;;;;;;;5421993;26;20477;-73
2024/04/14 01:27:17;;;;;;;3.43;3.23;;;;;;;;;;5447116;26;21185;-73
2024/04/14 01:29:45;;;;;;;3.20;2.90;;;;;;;;;;5437042;26;20885;-74
2024/04/14 01:32:12;;;;;;;3.53;3.23;;;;;;;;;;5429537;26;20525;-75
2024/04/14 01:34:41;;;;;;;4.10;3.20;;;;;;;;;;5416246;26;20473;-73
2024/04/14 01:37:07;;;;;;;3.57;3.37;;;;;;;;;;5416687;26;20502;-73
2024/04/14 01:39:36;;;;;;;3.80;3.50;;;;;;;;;;5416770;26;21031;-73
2024/04/14 01:42:03;;;;;;;3.40;3.20;;;;;;;;;;5416251;26;20468;-74
2024/04/14 01:44:34;;;;;;;4.80;3.07;;;;;;;;;;5416647;26;20476;-73
2024/04/14 01:47:01;;;;;;;5.33;3.90;;;;;;;;;;5416996;26;20528;-74
2024/04/14 01:49:29;;;;;;;4.60;3.50;;;;;;;;;;5416614;26;20560;-74
2024/04/14 01:51:56;;;;;;;3.90;3.60;;;;;;;;;;5416184;26;20525;-74
2024/04/14 01:54:24;;;;;;;3.53;3.23;;;;;;;;;;5415902;26;20460;-73
2024/04/14 01:56:50;;;;;;;3.73;3.00;;;;;;;;;;5416313;26;21097;-74
2024/04/14 01:59:19;;;;;;;7.60;3.60;;;;;;;;;;5416582;26;20532;-73
2024/04/14 02:01:48;;;;;;;3.43;3.23;;;;;;;;;;5416412;26;20473;-73
2024/04/14 02:04:17;;;;;;;3.97;3.73;;;;;;;;;;5415993;26;20481;-74
2024/04/14 02:06:43;;;;;;;3.50;3.30;;;;;;;;;;5416105;26;20482;-73
2024/04/14 02:09:12;;;;;;;7.13;3.20;;;;;;;;;;5416258;26;20587;-74
2024/04/14 02:11:39;;;;;;;4.87;2.93;;;;;;;;;;5416311;26;20472;-74
2024/04/14 02:14:08;;;;;;;3.10;2.90;;;;;;;;;;5416009;26;21132;-73
2024/04/14 02:16:34;;;;;;;3.30;3.00;;;;;;;;;;5415810;26;20527;-74
2024/04/14 02:19:05;;;;;;;4.00;3.67;;;;;;;;;;5416232;26;20551;-73
2024/04/14 02:21:32;;;;;;;3.73;3.37;;;;;;;;;;5416309;26;21081;-73
2024/04/14 02:24:01;;;;;;;3.77;3.57;;;;;;;;;;5415908;26;20473;-73
2024/04/14 02:26:27;;;;;;;4.70;2.90;;;;;;;;;;5416179;26;20540;-74
2024/04/14 02:28:56;;;;;;;4.40;4.10;;;;;;;;;;5416392;26;20488;-74
2024/04/14 02:31:22;;;;;;;3.57;3.37;;;;;;;;;;5415903;26;20511;-73
2024/04/14 02:33:51;;;;;;;3.30;3.10;;;;;;;;;;5415656;26;20860;-73
2024/04/14 02:36:20;;;;;;;4.10;3.80;;;;;;;;;;5415772;26;20477;-73
2024/04/14 02:38:49;;;;;;;4.57;3.57;;;;;;;;;;5415735;26;20590;-74
2024/04/14 02:41:15;;;;;;;3.33;3.03;;;;;;;;;;5415702;26;20468;-75
2024/04/14 02:43:44;;;;;;;8.73;3.80;;;;;;;;;;5415314;26;20516;-73
2024/04/14 02:46:11;;;;;;;4.00;3.70;;;;;;;;;;5415341;26;20908;-73
2024/04/14 02:48:40;;;;;;;3.30;3.10;;;;;;;;;;5415455;26;20472;-73
2024/04/14 02:51:06;;;;;;;2.97;2.77;;;;;;;;;;5415733;26;20567;-73
2024/04/14 02:53:38;;;;;;;3.77;3.47;;;;;;;;;;5415526;26;21097;-73
2024/04/14 02:56:05;;;;;;;3.73;3.53;;;;;;;;;;5415532;26;20461;-74
2024/04/14 02:58:33;;;;;;;3.13;2.93;;;;;;;;;;5415646;26;20525;-73
2024/04/14 03:01:00;;;;;;;3.23;3.03;;;;;;;;;;5415798;26;20517;-75
2024/04/14 03:03:29;;;;;;;3.83;3.53;;;;;;;;;;5415174;26;21414;-74
2024/04/14 03:05:59;;;;;;;3.50;3.30;;;;;;;;;;5415667;26;21078;-73
2024/04/14 03:08:27;;;;;;;3.20;3.00;;;;;;;;;;5415511;26;20489;-74
2024/04/14 03:10:56;;;;;;;3.07;2.87;;;;;;;;;;5415632;26;20473;-73
2024/04/14 03:13:25;;;;;;;3.43;3.23;;;;;;;;;;5415130;26;20822;-74
2024/04/14 03:15:52;;;;;;;4.03;3.50;;;;;;;;;;5415396;26;20504;-74
2024/04/14 03:18:21;;;;;;;3.00;2.90;;;;;;;;;;5415354;26;20473;-74
2024/04/14 03:20:54;;;;;;;2.83;2.63;;;;;;;;;;5414081;26;20462;-74
2024/04/14 03:23:23;;;;;;;3.23;2.87;;;;;;;;;;5413326;26;20567;-73
2024/04/14 03:25:49;;;;;;;3.43;3.17;;;;;;;;;;5415205;26;20525;-74
2024/04/14 03:28:22;;;;;;;3.30;3.00;;;;;;;;;;5415086;26;20575;-73
2024/04/14 03:30:48;;;;;;;3.10;2.90;;;;;;;;;;5415068;26;20457;-74
2024/04/14 03:33:17;;;;;;;3.73;3.47;;;;;;;;;;5438250;26;20527;-74
2024/04/14 03:35:43;;;;;;;2.83;2.63;;;;;;;;;;5450924;26;20479;-74
2024/04/14 03:38:12;;;;;;;3.00;2.80;;;;;;;;;;5435869;26;20526;-73
2024/04/14 03:40:40;;;;;;;5.17;3.33;;;;;;;;;;5450104;26;20475;-74
2024/04/14 03:43:09;;;;;;;3.40;3.10;;;;;;;;;;5450542;26;20466;-73
2024/04/14 03:45:43;;;;;;;4.00;3.70;;;;;;;;;;5450745;26;20470;-73
2024/04/14 03:48:12;;;;;;;3.03;2.83;;;;;;;;;;5450758;26;20509;-74
2024/04/14 03:50:38;;;;;;;3.40;3.20;;;;;;;;;;5451351;26;20812;-74
2024/04/14 03:53:07;;;;;;;3.90;3.57;;;;;;;;;;5450501;26;20523;-74
2024/04/14 03:55:33;;;;;;;3.47;3.27;;;;;;;;;;5449914;26;20529;-73
2024/04/14 03:58:02;;;;;;;3.37;3.07;;;;;;;;;;5450770;26;20570;-73
2024/04/14 04:00:28;;;;;;;3.30;3.13;;;;;;;;;;5450851;26;20471;-73
2024/04/14 04:03:00;;;;;;;3.40;3.10;;;;;;;;;;5450396;26;21061;-75
2024/04/14 04:05:26;;;;;;;4.20;3.30;;;;;;;;;;5450975;26;20467;-74
2024/04/14 04:07:55;;;;;;;3.57;3.27;;;;;;;;;;5450927;26;20483;-73
2024/04/14 04:10:21;;;;;;;4.37;4.07;;;;;;;;;;5450697;26;20460;-73
2024/04/14 04:12:50;;;;;;;3.43;3.13;;;;;;;;;;5450121;26;20566;-73
2024/04/14 04:15:16;;;;;;;3.77;3.47;;;;;;;;;;5450561;26;20459;-73
2024/04/14 04:17:45;;;;;;;3.30;3.07;;;;;;;;;;5450608;26;20529;-73
2024/04/14 04:20:14;;;;;;;3.83;3.43;;;;;;;;;;5450423;26;20513;-74
2024/04/14 04:22:43;;;;;;;6.57;3.40;;;;;;;;;;5450146;26;20538;-73
2024/04/14 04:25:09;;;;;;;3.40;2.90;;;;;;;;;;5450294;26;20467;-73
2024/04/14 04:27:37;;;;;;;3.80;3.50;;;;;;;;;;5450007;26;20487;-74
2024/04/14 04:30:04;;;;;;;5.10;3.77;;;;;;;;;;5450182;26;20516;-73
2024/04/14 04:32:33;;;;;;;3.37;3.10;;;;;;;;;;5449778;26;20601;-73
2024/04/14 04:35:00;;;;;;;4.00;3.17;;;;;;;;;;5450127;26;21102;-74
2024/04/14 04:37:31;;;;;;;3.60;3.20;;;;;;;;;;5450230;26;20471;-74
2024/04/14 04:39:57;;;;;;;3.73;2.90;;;;;;;;;;5423373;26;20525;-73
2024/04/14 04:42:26;;;;;;;3.60;3.30;;;;;;;;;;5413915;26;21004;-73
2024/04/14 04:44:52;;;;;;;3.33;3.07;;;;;;;;;;5414134;26;20822;-73
2024/04/14 04:47:21;;;;;;;5.10;3.57;;;;;;;;;;5414119;26;20607;-73
2024/04/14 04:49:48;;;;;;;3.40;3.20;;;;;;;;;;5414177;26;20464;-73
2024/04/14 04:52:16;;;;;;;3.97;3.73;;;;;;;;;;5413430;26;20523;-73
2024/04/14 04:54:45;;;;;;;3.70;3.40;;;;;;;;;;5414078;26;21066;-74
2024/04/14 04:57:14;;;;;;;3.67;3.37;;;;;;;;;;5414162;26;20477;-73
2024/04/14 04:59:40;;;;;;;6.70;3.33;;;;;;;;;;5413900;26;20465;-73
2024/04/14 05:02:09;;;;;;;6.37;4.67;;;;;;;;;;5413733;26;21195;-74
2024/04/14 05:04:35;;;;;;;3.30;3.10;;;;;;;;;;5413668;26;20465;-73
2024/04/14 05:07:05;;;;;;;3.83;3.50;;;;;;;;;;5412133;26;20595;-74
2024/04/14 05:09:32;;;;;;;4.17;3.50;;;;;;;;;;5413794;26;20511;-74
2024/04/14 05:12:03;;;;;;;3.60;3.30;;;;;;;;;;5413232;26;20546;-73
2024/04/14 05:14:29;;;;;;;4.17;3.40;;;;;;;;;;5413607;26;20511;-73
2024/04/14 05:16:58;;;;;;;4.10;3.70;;;;;;;;;;5413396;26;20488;-73
2024/04/14 05:19:24;;;;;;;4.40;3.80;;;;;;;;;;5413266;26;20472;-74
2024/04/14 05:21:53;;;;;;;4.43;3.80;;;;;;;;;;5413454;26;20562;-74
2024/04/14 05:24:19;;;;;;;3.27;2.97;;;;;;;;;;5413360;26;20473;-74
2024/04/14 05:26:48;;;;;;;3.40;3.20;;;;;;;;;;5413435;26;20931;-73
2024/04/14 05:29:17;;;;;;;3.60;3.30;;;;;;;;;;5413494;26;21291;-74
2024/04/14 05:31:45;;;;;;;4.13;3.63;;;;;;;;;;5413067;26;20552;-74
2024/04/14 05:34:12;;;;;;;3.13;2.93;;;;;;;;;;5412967;26;20465;-74
2024/04/14 05:36:41;;;;;;;6.27;3.80;;;;;;;;;;5413064;26;20484;-73
2024/04/14 05:39:07;;;;;;;3.57;3.33;;;;;;;;;;5413088;26;20900;-74
2024/04/14 05:41:36;;;;;;;3.30;3.00;;;;;;;;;;5412866;26;20473;-74
2024/04/14 05:44:02;;;;;;;3.60;3.30;;;;;;;;;;5412606;26;20534;-73
2024/04/14 05:46:33;;;;;;;3.70;3.40;;;;;;;;;;5412681;26;20500;-73
2024/04/14 05:48:59;;;;;;;3.50;3.30;;;;;;;;;;5413244;26;20466;-73
2024/04/14 05:51:28;;;;;;;4.13;3.83;;;;;;;;;;5413294;26;20586;-73
2024/04/14 05:53:54;;;;;;;4.53;4.03;;;;;;;;;;5412697;26;20460;-74
2024/04/14 05:56:23;;;;;;;4.20;3.90;;;;;;;;;;5412790;26;21045;-74
2024/04/14 05:58:49;;;;;;;4.23;3.83;;;;;;;;;;5412758;26;20464;-73
2024/04/14 06:01:18;;;;;;;3.50;3.20;;;;;;;;;;5412502;26;20548;-74
2024/04/14 06:03:49;;;;;;;3.13;2.90;;;;;;;;;;5412379;26;20473;-73
2024/04/14 06:06:17;;;;;;;3.73;3.43;;;;;;;;;;5412723;26;20473;-73
2024/04/14 06:08:44;;;;;;;4.80;3.43;;;;;;;;;;5412516;26;20517;-73
2024/04/14 06:11:12;;;;;;;3.93;3.63;;;;;;;;;;5412233;26;20468;-73
2024/04/14 06:13:39;;;;;;;4.17;3.87;;;;;;;;;;5412002;26;20462;-74
2024/04/14 06:16:07;;;;;;;3.83;3.47;;;;;;;;;;5412453;26;20469;-74
2024/04/14 06:18:34;;;;;;;3.30;3.00;;;;;;;;;;5414694;26;20528;-74
2024/04/14 06:21:06;;;;;;;4.80;3.93;;;;;;;;;;5415936;26;20588;-74
2024/04/14 06:23:32;;;;;;;5.83;4.40;;;;;;;;;;5415676;26;20462;-74
2024/04/14 06:26:01;;;;;;;4.20;3.90;;;;;;;;;;5415801;26;20466;-74
2024/04/14 06:28:27;;;;;;;3.70;3.50;;;;;;;;;;5416072;26;20621;-74
2024/04/14 06:30:55;;;;;;;5.33;4.70;;;;;;;;;;5416132;26;21069;-74
2024/04/14 06:33:22;;;;;;;5.40;4.30;;;;;;;;;;5415609;26;20479;-74
2024/04/14 06:35:50;;;;;;;4.27;3.93;;;;;;;;;;5415967;26;20553;-74
2024/04/14 06:38:19;;;;;;;5.73;5.33;;;;;;;;;;5415858;26;20552;-74
2024/04/14 06:40:48;;;;;;;5.90;5.30;;;;;;;;;;5415692;26;20868;-74
2024/04/14 06:43:16;;;;;;;5.93;4.40;;;;;;;;;;5415653;26;20521;-74
2024/04/14 06:45:48;;;;;;;5.40;4.17;;;;;;;;;;5415708;26;20594;-76
2024/04/14 06:48:16;;;;;;;5.07;4.50;;;;;;;;;;5415632;26;20474;-74
2024/04/14 06:50:45;;;;;;;4.90;4.43;;;;;;;;;;5416113;26;20472;-74
2024/04/14 06:53:13;;;;;;;4.57;4.27;;;;;;;;;;5415096;26;21056;-74
2024/04/14 06:55:46;;;;;;;4.67;4.23;;;;;;;;;;5415534;26;20948;-74
2024/04/14 06:58:12;;;;;;;5.57;5.10;;;;;;;;;;5415487;26;20484;-74
2024/04/14 07:00:42;;;;;;;4.63;3.77;;;;;;;;;;5415430;26;21012;-74
2024/04/14 07:03:08;;;;;;;3.57;3.37;;;;;;;;;;5415191;26;20517;-74
2024/04/14 07:05:37;;;;;;;6.40;5.93;;;;;;;;;;5414777;26;20824;-74
2024/04/14 07:08:03;;;;;;;4.00;3.70;;;;;;;;;;5414865;26;21065;-74
2024/04/14 07:10:32;;;;;;;4.53;4.13;;;;;;;;;;5435369;26;20482;-74
2024/04/14 07:13:01;;;;;;;4.20;3.90;;;;;;;;;;5450307;26;21064;-74
2024/04/14 07:15:29;;;;;;;4.27;3.83;;;;;;;;;;5450126;26;21064;-74
2024/04/14 07:17:56;;;;;;;4.27;3.90;;;;;;;;;;5445475;26;20535;-74
2024/04/14 07:20:25;;;;;;;4.33;4.03;;;;;;;;;;5449815;26;20474;-74
2024/04/14 07:22:51;;;;;;;4.93;4.50;;;;;;;;;;5449303;26;20543;-75
2024/04/14 07:25:20;;;;;;;3.80;2.93;;;;;;;;;;5449236;26;20598;-74
2024/04/14 07:27:46;;;;;;;5.70;3.00;;;;;;;;;;5449719;26;20475;-74
2024/04/14 07:30:18;;;;;;;4.07;2.53;;;;;;;;;;5448954;26;20471;-75
2024/04/14 07:32:44;;;;;;;3.33;3.03;;;;;;;;;;5446484;26;21036;-75
2024/04/14 07:35:13;;;;;;;3.23;2.90;;;;;;;;;;5450382;26;20487;-75
2024/04/14 07:37:39;;;;;;;3.63;2.80;;;;;;;;;;5444952;26;20476;-75
2024/04/14 07:40:08;;;;;;;3.07;2.80;;;;;;;;;;5450209;26;20581;-74
2024/04/14 07:42:34;;;;;;;2.27;2.17;;;;;;;;;;5450372;26;21520;-75
2024/04/14 07:45:04;;;;;;;4.70;3.23;;;;;;;;;;5450986;26;20471;-75
2024/04/14 07:47:33;;;;;;;4.93;3.93;;;;;;;;;;5450627;26;20532;-75
2024/04/14 07:50:02;;;;;;;3.90;2.70;;;;;;;;;;5450783;26;20612;-76
2024/04/14 07:52:28;;;;;;;4.77;2.63;;;;;;;;;;5450241;26;20472;-75
2024/04/14 07:54:57;;;;;;;2.60;2.40;;;;;;;;;;5450544;26;20476;-76
2024/04/14 07:57:23;;;;;;;2.37;2.20;;;;;;;;;;5450553;26;20529;-75
2024/04/14 07:59:52;;;;;;;3.83;2.77;;;;;;;;;;5450384;26;20486;-75
2024/04/14 08:02:18;;;;;;;3.03;2.77;;;;;;;;;;5450119;26;20514;-76
2024/04/14 08:04:49;;;;;;;3.10;2.80;;;;;;;;;;5449755;26;20588;-76
2024/04/14 08:07:16;;;;;;;2.73;2.53;;;;;;;;;;5450355;26;20490;-75
2024/04/14 08:09:44;;;;;;;3.57;3.27;;;;;;;;;;5450093;26;20469;-74
2024/04/14 08:12:10;;;;;;;2.80;2.60;;;;;;;;;;5449536;26;20519;-76
2024/04/14 08:14:39;;;;;;;3.43;2.77;;;;;;;;;;5450498;26;20473;-75
2024/04/14 08:17:05;;;;;;;2.57;2.33;;;;;;;;;;5450265;26;20885;-75
2024/04/14 08:19:34;;;;;;;3.00;2.43;;;;;;;;;;5450357;26;20590;-76
2024/04/14 08:22:03;;;;;;;2.40;2.30;;;;;;;;;;5450083;26;20470;-76
2024/04/14 08:24:32;;;;;;;4.53;2.60;;;;;;;;;;5436673;26;20471;-75
2024/04/14 08:26:58;;;;;;;3.93;2.70;;;;;;;;;;5427021;26;20528;-75
2024/04/14 08:29:27;;;;;;;4.47;2.90;;;;;;;;;;5443137;26;20473;-76
2024/04/14 08:31:55;;;;;;;2.40;2.20;;;;;;;;;;5418459;26;21083;-76
2024/04/14 08:34:24;;;;;;;3.30;2.33;;;;;;;;;;5432908;26;20564;-76
2024/04/14 08:36:50;;;;;;;2.30;2.10;;;;;;;;;;5447745;26;20482;-76
2024/04/14 08:39:22;;;;;;;6.40;2.80;;;;;;;;;;5443656;26;20585;-75
2024/04/14 08:41:49;;;;;;;2.60;2.40;;;;;;;;;;5440373;26;20479;-75
2024/04/14 08:44:18;;;;;;;3.07;2.63;;;;;;;;;;5439073;26;20467;-76
2024/04/14 08:46:44;;;;;;;2.60;2.40;;;;;;;;;;5428290;26;20469;-75
2024/04/14 08:49:13;;;;;;;2.63;2.43;;;;;;;;;;5443171;26;20525;-77
2024/04/14 08:51:40;;;;;;;3.23;3.03;;;;;;;;;;5437394;26;20525;-75
2024/04/14 08:54:09;;;;;;;2.27;1.90;;;;;;;;;;5442952;26;20519;-77
2024/04/14 08:56:38;;;;;;;2.80;2.37;;;;;;;;;;5434114;26;21067;-76
2024/04/14 08:59:07;;;;;;;2.60;2.40;;;;;;;;;;5422577;26;20533;-75
2024/04/14 09:01:34;;;;;;;2.90;2.33;;;;;;;;;;5442398;26;20522;-76
2024/04/14 09:04:04;;;;;;;2.00;1.90;;;;;;;;;;5442595;26;20470;-76
2024/04/14 09:06:30;;;;;;;2.20;2.00;;;;;;;;;;5432477;26;20531;-76
2024/04/14 09:08:59;;;;;;;2.00;1.90;;;;;;;;;;5439143;26;20463;-75
2024/04/14 09:11:25;;;;;;;2.40;2.20;;;;;;;;;;5447102;26;20474;-76
2024/04/14 09:13:56;;;;;;;1.83;1.73;;;;;;;;;;5448312;26;20562;-76
2024/04/14 09:16:23;;;;;;;3.10;1.97;;;;;;;;;;5447577;26;20524;-76
2024/04/14 09:18:51;;;;;;;1.93;1.83;;;;;;;;;;5436014;26;20469;-76
2024/04/14 09:21:18;;;;;;;3.33;1.97;;;;;;;;;;5433691;26;20475;-76
2024/04/14 09:23:46;;;;;;;2.87;2.30;;;;;;;;;;5447791;26;20856;-76
2024/04/14 09:26:13;;;;;;;1.87;1.77;;;;;;;;;;5440566;26;20937;-76
2024/04/14 09:28:42;;;;;;;2.63;2.30;;;;;;;;;;5436227;26;20594;-75
2024/04/14 09:31:11;;;;;;;4.33;1.90;;;;;;;;;;5440717;26;20527;-77
2024/04/14 09:33:40;;;;;;;1.90;1.60;;;;;;;;;;5447322;26;20467;-76
2024/04/14 09:36:08;;;;;;;2.90;1.77;;;;;;;;;;5440722;26;20528;-76
2024/04/14 09:38:37;;;;;;;3.33;2.00;;;;;;;;;;5447322;26;20527;-76
2024/04/14 09:41:04;;;;;;;2.73;2.07;;;;;;;;;;5444229;26;20463;-77
2024/04/14 09:43:33;;;;;;;3.13;2.10;;;;;;;;;;5438204;26;20584;-75
2024/04/14 09:46:00;;;;;;;2.90;2.23;;;;;;;;;;5436899;26;20467;-76
2024/04/14 09:48:32;;;;;;;2.33;2.00;;;;;;;;;;5439588;26;21130;-76
2024/04/14 09:50:58;;;;;;;2.20;2.00;;;;;;;;;;5440071;26;20475;-77
2024/04/14 09:53:31;;;;;;;2.13;2.03;;;;;;;;;;5448875;26;20475;-76
2024/04/14 09:55:58;;;;;;;2.30;2.10;;;;;;;;;;5447257;26;20467;-77
2024/04/14 09:58:26;;;;;;;2.10;2.00;;;;;;;;;;5449955;26;20479;-75
2024/04/14 10:00:53;;;;;;;2.97;2.20;;;;;;;;;;5427735;26;20474;-73
2024/04/14 10:03:24;;;;;;;1.97;1.87;;;;;;;;;;5443079;26;20471;-73
2024/04/14 10:05:54;;;;;;;1.77;1.67;;;;;;;;;;5442048;26;20471;-74
2024/04/14 10:08:23;;;;;;;4.30;2.00;;;;;;;;;;5446161;26;20476;-73
2024/04/14 10:10:52;;;;;;;2.13;2.03;;;;;;;;;;5421422;26;20533;-73
2024/04/14 10:13:21;;;;;;;1.70;1.60;;;;;;;;;;5446520;26;20480;-74
2024/04/14 10:15:55;;;;;;;2.20;2.10;;;;;;;;;;5446245;26;20477;-74
2024/04/14 10:18:24;;;;;;;2.30;2.10;;;;;;;;;;5422635;26;20528;-74
2024/04/14 10:20:55;;;;;;;2.20;2.00;;;;;;;;;;5438718;26;20468;-75
2024/04/14 10:23:25;;;;;;;2.60;2.50;;;;;;;;;;5450885;26;20468;-73
2024/04/14 10:25:52;;;;;;;1.90;1.80;;;;;;;;;;5450781;26;20480;-74
2024/04/14 10:28:21;;;;;;;2.87;2.60;;;;;;;;;;5450380;26;20523;-74
2024/04/14 10:30:49;;;;;;;2.03;1.87;;;;;;;;;;5450163;26;20475;-74
2024/04/14 10:33:24;;;;;;;2.20;2.07;;;;;;;;;;5429815;26;20477;-74
2024/04/14 10:36:02;;;;;;;3.70;2.10;;;;;;;;;;5444029;26;20464;-75
2024/04/14 10:38:32;;;;;;;1.57;1.47;;;;;;;;;;5428487;26;20556;-75
2024/04/14 10:40:59;;;;;;;2.90;1.83;;;;;;;;;;5447362;26;20465;-75
2024/04/14 10:43:28;;;;;;;2.23;1.80;;;;;;;;;;5431352;26;20524;-74
2024/04/14 10:45:59;;;;;;;5.13;2.23;;;;;;;;;;5448673;26;20875;-74
2024/04/14 10:48:28;;;;;;;1.70;1.50;;;;;;;;;;5427709;26;20477;-74
2024/04/14 10:50:54;;;;;;;2.00;1.50;;;;;;;;;;5450787;26;20595;-75
2024/04/14 10:53:26;;;;;;;2.10;1.60;;;;;;;;;;5446542;26;20524;-75
2024/04/14 10:55:52;;;;;;;2.40;2.23;;;;;;;;;;5441849;26;20481;-75
2024/04/14 10:58:21;;;;;;;2.90;2.00;;;;;;;;;;5450535;26;20477;-75
2024/04/14 11:00:47;;;;;;;1.50;1.40;;;;;;;;;;5450334;26;20480;-76
2024/04/14 11:03:16;;;;;;;1.87;1.70;;;;;;;;;;5449827;26;20477;-74
2024/04/14 11:05:42;;;;;;;2.40;1.77;;;;;;;;;;5450079;26;20525;-74
2024/04/14 11:08:11;;;;;;;1.77;1.67;;;;;;;;;;5434249;26;20904;-74
2024/04/14 11:10:40;;;;;;;2.40;1.20;;;;;;;;;;5443310;26;21372;-74
2024/04/14 11:13:09;;;;;;;1.30;1.20;;;;;;;;;;5447481;26;20480;-75
2024/04/14 11:15:37;;;;;;;1.50;1.40;;;;;;;;;;5449806;26;20524;-75
2024/04/14 11:18:06;;;;;;;2.07;1.87;;;;;;;;;;5437959;26;20606;-74
2024/04/14 11:20:32;;;;;;;1.60;1.50;;;;;;;;;;5445836;26;20533;-75
2024/04/14 11:23:03;;;;;;;1.37;1.27;;;;;;;;;;5449307;26;20594;-74
2024/04/14 11:25:30;;;;;;;2.53;1.83;;;;;;;;;;5444221;26;20530;-74
2024/04/14 11:28:01;;;;;;;1.73;1.63;;;;;;;;;;5423128;26;20835;-74
2024/04/14 11:30:29;;;;;;;1.73;1.63;;;;;;;;;;5474785;26;20483;-74
2024/04/14 11:32:58;;;;;;;1.73;1.63;;;;;;;;;;5449246;26;20478;-76
2024/04/14 11:35:25;;;;;;;2.10;1.17;;;;;;;;;;5449983;26;20844;-69
2024/04/14 11:37:55;;;;;;;1.70;1.60;;;;;;;;;;5439392;26;20577;-72
2024/04/14 11:40:21;;;;;;;1.50;1.20;;;;;;;;;;5448900;26;20549;-71
2024/04/14 11:42:50;;;;;;;1.63;1.53;;;;;;;;;;5438063;26;20589;-72
2024/04/14 11:45:19;;;;;;;1.63;1.40;;;;;;;;;;5423348;26;20472;-71
2024/04/14 11:47:48;;;;;;;2.77;1.87;;;;;;;;;;5439485;26;20543;-72
2024/04/14 11:50:15;;;;;;;2.20;2.00;;;;;;;;;;5426850;26;21003;-72
2024/04/14 11:52:44;;;;;;;1.50;1.37;;;;;;;;;;5440104;26;20554;-71
2024/04/14 11:55:10;;;;;;;1.50;1.40;;;;;;;;;;5441434;26;21028;-71
2024/04/14 11:57:39;;;;;;;1.93;1.60;;;;;;;;;;5424169;26;20610;-72
2024/04/14 12:00:05;;;;;;;1.50;1.33;;;;;;;;;;5444478;26;20548;-72
2024/04/14 12:02:37;;;;;;;1.40;1.40;;;;;;;;;;5418142;26;20476;-72
2024/04/14 12:05:03;;;;;;;1.53;1.43;;;;;;;;;;5434918;26;20514;-72
2024/04/14 12:07:32;;;;;;;1.07;1.07;;;;;;;;;;5423438;26;20517;-72
2024/04/14 12:09:58;;;;;;;2.97;1.10;;;;;;;;;;5448787;26;20481;-72
2024/04/14 12:12:27;;;;;;;1.10;1.00;;;;;;;;;;5420103;26;20489;-72
2024/04/14 12:14:54;;;;;;;1.63;1.17;;;;;;;;;;5420888;26;20477;-71
2024/04/14 12:17:22;;;;;;;2.30;1.53;;;;;;;;;;5442528;26;20483;-72
2024/04/14 12:19:51;;;;;;;1.27;1.17;;;;;;;;;;5441932;26;20471;-71
2024/04/14 12:22:20;;;;;;;1.47;1.37;;;;;;;;;;5432760;26;20495;-71
2024/04/14 12:24:46;;;;;;;1.30;1.30;;;;;;;;;;5448334;26;20480;-72
2024/04/14 12:27:15;;;;;;;1.30;1.20;;;;;;;;;;5432403;26;20497;-72
2024/04/14 12:29:43;;;;;;;2.10;1.93;;;;;;;;;;5426389;26;20477;-71
2024/04/14 12:32:12;;;;;;;1.17;1.17;;;;;;;;;;5427265;26;20531;-71
2024/04/14 12:34:38;;;;;;;1.60;0.90;;;;;;;;;;5439199;26;20517;-71
2024/04/14 12:37:09;;;;;;;2.10;1.33;;;;;;;;;;5434433;26;20474;-71
2024/04/14 12:39:35;;;;;;;1.40;1.20;;;;;;;;;;5448957;26;20515;-71
2024/04/14 12:42:05;;;;;;;1.10;1.10;;;;;;;;;;5439887;26;20813;-71
2024/04/14 12:44:31;;;;;;;1.57;1.47;;;;;;;;;;5428121;26;21074;-71
2024/04/14 12:47:00;;;;;;;1.33;1.00;;;;;;;;;;5447454;26;20535;-71
2024/04/14 12:49:26;;;;;;;1.53;1.43;;;;;;;;;;5447550;26;21354;-71
2024/04/14 12:51:55;;;;;;;1.07;1.00;;;;;;;;;;5447590;26;20473;-71
2024/04/14 12:54:24;;;;;;;1.30;1.13;;;;;;;;;;5447860;26;20520;-71
2024/04/14 12:56:53;;;;;;;1.00;1.00;;;;;;;;;;5447450;26;21034;-70
2024/04/14 12:59:19;;;;;;;1.20;1.20;;;;;;;;;;5447962;26;20463;-71
2024/04/14 13:01:48;;;;;;;1.40;1.17;;;;;;;;;;5447657;26;20486;-71
2024/04/14 13:04:14;;;;;;;1.37;1.10;;;;;;;;;;5447026;26;20482;-72
2024/04/14 13:06:43;;;;;;;0.80;0.80;;;;;;;;;;5447604;26;20809;-72
2024/04/14 13:09:09;;;;;;;1.40;0.70;;;;;;;;;;5447790;26;20474;-72
2024/04/14 13:11:41;;;;;;;1.00;1.00;;;;;;;;;;5431736;26;20464;-70
2024/04/14 13:14:08;;;;;;;1.07;1.00;;;;;;;;;;5437828;26;20807;-71
2024/04/14 13:16:36;;;;;;;0.97;0.97;;;;;;;;;;5446993;26;20539;-71
2024/04/14 13:19:02;;;;;;;0.83;0.83;;;;;;;;;;5431288;26;20460;-72
2024/04/14 13:21:33;;;;;;;1.43;1.27;;;;;;;;;;5446326;26;20475;-72
2024/04/14 13:23:59;;;;;;;1.00;0.90;;;;;;;;;;5446863;26;20814;-71
2024/04/14 13:26:30;;;;;;;0.80;0.80;;;;;;;;;;5438266;26;20539;-72
2024/04/14 13:28:59;;;;;;;1.03;0.97;;;;;;;;;;5450660;26;20472;-72
2024/04/14 13:31:28;;;;;;;4.10;1.50;;;;;;;;;;5450415;26;20487;-71
2024/04/14 13:33:54;;;;;;;0.97;0.97;;;;;;;;;;5450834;26;20523;-71
2024/04/14 13:36:23;;;;;;;1.23;1.10;;;;;;;;;;5450495;26;20471;-71
2024/04/14 13:38:51;;;;;;;2.33;1.40;;;;;;;;;;5441915;26;20475;-73
2024/04/14 13:41:19;;;;;;;1.27;1.17;;;;;;;;;;5450776;26;20560;-72
2024/04/14 13:43:46;;;;;;;1.07;1.00;;;;;;;;;;5444384;26;20476;-72
2024/04/14 13:46:19;;;;;;;2.30;1.50;;;;;;;;;;5433939;26;21143;-72
2024/04/14 13:48:45;;;;;;;1.43;1.33;;;;;;;;;;5429555;26;20532;-72
2024/04/14 13:51:14;;;;;;;2.20;1.43;;;;;;;;;;5440017;26;20482;-72
2024/04/14 13:53:41;;;;;;;2.87;1.67;;;;;;;;;;5440223;26;20475;-72
2024/04/14 13:56:10;;;;;;;1.30;1.20;;;;;;;;;;5449801;26;20876;-72
2024/04/14 13:58:36;;;;;;;1.20;1.10;;;;;;;;;;5432818;26;20834;-72
2024/04/14 14:01:05;;;;;;;2.10;1.90;;;;;;;;;;5449071;26;20536;-73
2024/04/14 14:03:34;;;;;;;2.43;1.00;;;;;;;;;;5430673;26;20474;-71
2024/04/14 14:06:03;;;;;;;1.03;1.03;;;;;;;;;;5441972;26;20531;-70
2024/04/14 14:08:29;;;;;;;1.20;1.10;;;;;;;;;;5450060;26;20483;-71
2024/04/14 14:10:58;;;;;;;1.37;1.27;;;;;;;;;;5449853;26;20573;-72
2024/04/14 14:13:24;;;;;;;1.17;1.07;;;;;;;;;;5449459;26;20467;-72
2024/04/14 14:15:53;;;;;;;1.20;1.10;;;;;;;;;;5449975;26;20472;-71
2024/04/14 14:18:22;;;;;;;3.10;1.67;;;;;;;;;;5439010;26;20491;-71
2024/04/14 14:20:52;;;;;;;2.00;1.43;;;;;;;;;;5450111;26;20467;-72
2024/04/14 14:23:20;;;;;;;1.57;1.47;;;;;;;;;;5449365;26;20509;-72
2024/04/14 14:25:47;;;;;;;1.00;1.00;;;;;;;;;;5434815;26;20462;-72
2024/04/14 14:28:15;;;;;;;2.40;1.10;;;;;;;;;;5438684;26;20524;-72
2024/04/14 14:30:42;;;;;;;2.00;1.40;;;;;;;;;;5449693;26;20866;-71
2024/04/14 14:36:26;;;;;;;1.73;1.40;;;;;;;;;;5438492;26;20593;-72
2024/04/14 14:36:26;;;;;;;1.37;1.37;;;;;;;;;;5444163;26;20518;-72
2024/04/14 14:38:55;;;;;;;2.00;1.10;;;;;;;;;;5439987;26;20546;-70
2024/04/14 14:41:23;;;;;;;1.70;1.43;;;;;;;;;;5450054;26;20877;-71
2024/04/14 14:43:52;;;;;;;1.23;1.17;;;;;;;;;;5449374;26;20512;-71
2024/04/14 14:46:21;;;;;;;1.27;1.10;;;;;;;;;;5449829;26;21235;-72
2024/04/14 14:48:47;;;;;;;2.53;2.07;;;;;;;;;;5450168;26;20541;-71